createdAt,value
2022-10-19T04:50:06.303Z,9.10
2022-10-19T04:52:35.457Z,7.70
2022-10-19T04:55:02.466Z,6.50
2022-10-19T04:57:29.523Z,6.77
2022-10-19T04:59:56.336Z,9.43
2022-10-19T05:02:23.262Z,11.20
2022-10-19T05:04:50.055Z,14.23
2022-10-19T05:07:16.985Z,9.50
2022-10-19T05:09:43.845Z,7.27
2022-10-19T05:12:10.665Z,8.80
2022-10-19T05:14:39.130Z,6.70
2022-10-19T05:17:08.904Z,8.87
2022-10-19T05:19:35.724Z,11.23
2022-10-19T05:22:02.538Z,7.13
2022-10-19T05:24:29.322Z,7.30
2022-10-19T05:26:56.156Z,7.70
2022-10-19T05:29:23.652Z,8.77
2022-10-19T05:31:50.641Z,6.90
2022-10-19T05:34:17.408Z,8.10
2022-10-19T05:36:44.264Z,12.77
2022-10-19T05:39:14.641Z,5.47
2022-10-19T05:41:44.059Z,7.57
2022-10-19T05:44:21.197Z,5.30
2022-10-19T05:46:48.966Z,6.73
2022-10-19T05:49:17.808Z,10.60
2022-10-19T05:51:44.926Z,12.20
2022-10-19T05:54:12.764Z,8.10
2022-10-19T05:56:40.726Z,14.17
2022-10-19T05:59:09.191Z,6.90
2022-10-19T06:01:36.669Z,8.90
2022-10-19T06:04:04.344Z,6.50
2022-10-19T06:06:31.570Z,7.83
2022-10-19T06:08:59.246Z,9.20
2022-10-19T06:11:31.567Z,9.20
2022-10-19T06:13:59.378Z,6.83
2022-10-19T06:16:27.387Z,7.80
2022-10-19T06:18:54.619Z,8.90
2022-10-19T06:21:23.816Z,7.83
2022-10-19T06:23:55.327Z,8.50
2022-10-19T06:26:22.836Z,14.07
2022-10-19T06:28:50.329Z,13.17
2022-10-19T06:31:17.990Z,11.80
2022-10-19T06:33:48.551Z,12.50
2022-10-19T06:36:19.227Z,6.97
2022-10-19T06:38:46.278Z,8.53
2022-10-19T06:41:13.299Z,13.00
2022-10-19T06:43:40.631Z,7.70
2022-10-19T06:46:12.629Z,10.93
2022-10-19T06:48:39.435Z,11.07
2022-10-19T06:51:07.806Z,10.87
2022-10-19T06:53:36.055Z,19.57
2022-10-19T06:56:05.121Z,9.90
2022-10-19T06:58:35.523Z,9.83
2022-10-19T07:01:02.714Z,9.50
2022-10-19T07:03:30.292Z,12.43
2022-10-19T07:05:59.327Z,10.20
2022-10-19T07:08:28.239Z,10.67
2022-10-19T07:11:00.551Z,6.77
2022-10-19T07:13:28.420Z,15.27
2022-10-19T07:16:03.795Z,11.70
2022-10-19T07:18:30.586Z,17.73
2022-10-19T07:21:03.369Z,15.53
2022-10-19T07:23:31.740Z,12.20
2022-10-19T07:26:02.040Z,16.20
2022-10-19T07:28:30.381Z,10.00
2022-10-19T07:30:57.729Z,8.37
2022-10-19T07:33:24.655Z,7.37
2022-10-19T07:35:51.494Z,9.83
2022-10-19T07:38:18.326Z,9.57
2022-10-19T07:40:47.375Z,6.57
2022-10-19T07:43:14.480Z,10.00
2022-10-19T07:45:41.298Z,8.60
2022-10-19T07:48:08.217Z,9.53
2022-10-19T07:50:35.082Z,11.00
2022-10-19T07:53:03.708Z,10.00
2022-10-19T07:55:30.521Z,10.50
2022-10-19T07:58:01.642Z,7.83
2022-10-19T08:00:28.769Z,10.13
2022-10-19T08:03:19.317Z,12.80
2022-10-19T08:05:42.924Z,10.13
2022-10-19T08:08:10.008Z,11.10
2022-10-19T08:10:37.321Z,15.80
2022-10-19T08:13:04.771Z,12.30
2022-10-19T08:15:33.195Z,11.63
2022-10-19T08:18:01.485Z,8.00
2022-10-19T08:20:28.925Z,10.53
2022-10-19T08:22:58.934Z,11.97
2022-10-19T08:25:26.837Z,10.47
2022-10-19T08:27:54.276Z,10.03
2022-10-19T08:30:21.738Z,11.20
2022-10-19T08:32:49.402Z,8.60
2022-10-19T08:35:16.863Z,11.13
2022-10-19T08:40:19.563Z,11.03
2022-10-19T08:43:02.877Z,9.50
2022-10-19T08:45:33.338Z,10.00
2022-10-19T08:48:15.643Z,13.50
2022-10-19T08:50:45.205Z,9.30
2022-10-19T08:53:33.102Z,12.93
2022-10-19T08:56:07.377Z,10.30
2022-10-19T08:59:10.531Z,11.23
2022-10-19T09:01:41.785Z,12.40
2022-10-19T09:04:20.494Z,18.63
2022-10-19T09:07:00.860Z,11.13
2022-10-19T09:09:31.333Z,11.27
2022-10-19T09:12:05.447Z,8.27
2022-10-19T09:17:17.296Z,14.17
2022-10-19T09:19:44.484Z,12.23
2022-10-19T09:22:28.571Z,15.13
2022-10-19T09:25:01.958Z,8.57
2022-10-19T09:27:50.666Z,12.80
2022-10-19T09:30:21.345Z,11.67
2022-10-19T09:32:50.972Z,11.00
2022-10-19T09:35:35.026Z,15.27
2022-10-19T09:38:02.626Z,14.00
2022-10-19T09:40:31.350Z,13.63
2022-10-19T09:42:59.943Z,8.10
2022-10-19T09:45:38.184Z,8.93
2022-10-19T09:48:28.905Z,13.30
2022-10-19T09:53:27.221Z,11.30
2022-10-19T09:56:00.282Z,12.63
2022-10-19T09:58:32.875Z,16.50
2022-10-19T10:01:02.033Z,16.27
2022-10-19T10:03:32.631Z,14.07
2022-10-19T10:06:04.044Z,16.27
2022-10-19T10:08:34.537Z,11.73
2022-10-19T10:11:16.798Z,9.97
2022-10-19T10:13:49.092Z,12.10
2022-10-19T10:16:19.134Z,11.73
2022-10-19T10:19:06.735Z,13.97
2022-10-19T10:21:37.117Z,10.30
2022-10-19T10:24:25.550Z,11.20
2022-10-19T10:26:57.237Z,11.10
2022-10-19T10:29:28.392Z,10.37
2022-10-19T10:32:00.146Z,12.40
2022-10-19T10:34:49.772Z,14.57
2022-10-19T10:37:32.042Z,14.70
2022-10-19T10:40:03.372Z,11.90
2022-10-19T10:42:52.662Z,15.60
2022-10-19T10:45:25.268Z,10.73
2022-10-19T10:47:53.621Z,13.77
2022-10-19T10:50:33.381Z,10.13
2022-10-19T10:53:07.235Z,13.90
2022-10-19T10:55:35.218Z,15.80
2022-10-19T10:58:25.502Z,12.13
2022-10-19T11:03:25.891Z,12.20
2022-10-19T11:06:00.233Z,17.70
2022-10-19T11:08:34.374Z,13.03
2022-10-19T11:11:11.698Z,14.47
2022-10-19T11:13:52.091Z,14.77
2022-10-19T11:16:40.217Z,10.60
2022-10-19T11:19:20.148Z,19.37
2022-10-19T11:22:05.343Z,21.13
2022-10-19T11:25:23.731Z,13.43
2022-10-19T11:28:08.931Z,17.90
2022-10-19T11:30:48.657Z,17.40
2022-10-19T11:33:57.852Z,15.67
2022-10-19T11:36:30.462Z,8.63
2022-10-19T11:39:18.602Z,15.73
2022-10-19T11:42:10.192Z,16.63
2022-10-19T11:44:47.013Z,15.30
2022-10-19T11:47:53.894Z,12.63
2022-10-19T11:51:10.119Z,18.47
2022-10-19T11:54:25.435Z,12.33
2022-10-19T11:57:11.866Z,10.33
2022-10-19T12:00:03.748Z,17.53
2022-10-19T12:03:03.401Z,13.77
2022-10-19T12:06:11.175Z,10.83
2022-10-19T12:09:02.202Z,12.40
2022-10-19T12:11:47.624Z,16.63
2022-10-19T12:14:18.832Z,15.93
2022-10-19T12:16:51.479Z,12.90
2022-10-19T12:19:23.940Z,12.57
2022-10-19T12:21:54.295Z,10.13
2022-10-19T12:24:24.156Z,16.63
2022-10-19T12:26:52.204Z,16.53
2022-10-19T12:29:25.606Z,14.83
2022-10-19T12:31:54.137Z,10.23
2022-10-19T12:49:46.768Z,13.77
2022-10-19T12:52:14.698Z,13.87
2022-10-19T12:54:43.144Z,17.77
2022-10-19T12:57:27.585Z,11.97
2022-10-19T13:00:05.339Z,18.00
2022-10-19T13:02:35.084Z,17.37
2022-10-19T13:05:02.151Z,11.03
2022-10-19T13:07:30.797Z,15.63
2022-10-19T13:10:03.288Z,16.03
2022-10-19T13:12:43.769Z,14.83
2022-10-19T13:15:36.439Z,14.23
2022-10-19T13:18:13.194Z,16.37
2022-10-19T13:23:27.579Z,18.97
2022-10-19T13:26:42.771Z,17.60
2022-10-19T13:29:25.840Z,15.73
2022-10-19T13:31:52.720Z,14.47
2022-10-19T13:34:19.597Z,21.17
2022-10-19T13:37:03.010Z,17.53
2022-10-19T13:39:30.263Z,19.73
2022-10-19T13:41:57.508Z,22.07
2022-10-19T13:44:27.099Z,16.73
2022-10-19T13:47:06.163Z,22.67
2022-10-19T13:49:51.114Z,19.20
2022-10-19T13:52:55.383Z,20.37
2022-10-19T13:55:47.527Z,19.73
2022-10-19T13:58:32.571Z,17.30
2022-10-19T14:01:14.408Z,22.43
2022-10-19T14:04:09.068Z,27.27
2022-10-19T14:06:52.461Z,23.63
2022-10-19T14:09:22.426Z,25.73
2022-10-19T14:11:52.400Z,24.93
2022-10-19T14:14:24.634Z,19.27
2022-10-19T14:16:58.290Z,25.23
2022-10-19T14:19:49.190Z,29.40
2022-10-19T14:22:26.448Z,32.33
2022-10-19T14:25:01.755Z,29.40
2022-10-19T14:27:28.895Z,22.63
2022-10-19T14:29:55.741Z,23.43
2022-10-19T14:32:26.284Z,26.50
2022-10-19T14:34:53.870Z,22.47
2022-10-19T14:37:26.446Z,20.23
2022-10-19T14:40:07.014Z,28.77
2022-10-19T14:42:45.771Z,27.53
2022-10-19T14:45:15.693Z,26.37
2022-10-19T14:48:02.405Z,23.70
2022-10-19T14:50:35.062Z,19.87
2022-10-19T14:53:23.765Z,19.57
2022-10-19T14:55:52.468Z,23.70
2022-10-19T14:58:23.176Z,24.13
2022-10-19T15:00:50.614Z,25.07
2022-10-19T15:03:26.409Z,18.77
2022-10-19T15:05:58.115Z,22.77
2022-10-19T15:08:32.405Z,28.27
2022-10-19T15:10:59.583Z,27.33
2022-10-19T15:13:33.868Z,18.63
2022-10-19T15:16:00.732Z,24.27
2022-10-19T15:18:48.868Z,21.50
2022-10-19T15:21:20.341Z,28.23
2022-10-19T15:23:48.947Z,19.87
2022-10-19T15:26:28.607Z,16.33
2022-10-19T15:29:18.755Z,21.67
2022-10-19T15:31:45.547Z,23.27
2022-10-19T15:34:31.084Z,18.63
2022-10-19T15:36:59.808Z,18.83
2022-10-19T15:39:40.126Z,20.30
2022-10-19T15:42:36.692Z,12.80
2022-10-19T15:45:25.301Z,17.43
2022-10-19T15:48:10.398Z,14.47
2022-10-19T15:50:49.521Z,12.90
2022-10-19T15:53:16.958Z,15.33
2022-10-19T15:55:43.840Z,11.70
2022-10-19T15:58:11.714Z,38.70
2022-10-19T16:00:39.362Z,31.30
2022-10-19T16:03:06.361Z,25.20
2022-10-19T16:05:35.524Z,25.37
2022-10-19T16:08:02.656Z,21.07
2022-10-19T16:10:29.588Z,12.67
2022-10-19T16:12:56.359Z,16.90
2022-10-19T16:15:23.972Z,16.53
2022-10-19T16:17:53.477Z,25.40
2022-10-19T16:20:20.528Z,21.10
2022-10-19T16:22:47.566Z,34.77
2022-10-19T16:25:14.867Z,29.07
2022-10-19T16:27:41.943Z,18.63
2022-10-19T16:30:09.921Z,15.80
2022-10-19T16:32:36.854Z,22.17
2022-10-19T16:35:03.964Z,21.13
2022-10-19T16:37:30.804Z,8.30
2022-10-19T16:39:57.654Z,12.83
2022-10-19T16:42:29.693Z,9.87
2022-10-19T16:44:57.605Z,7.50
2022-10-19T16:47:24.389Z,8.20
2022-10-19T16:49:58.279Z,12.60
2022-10-19T16:52:25.100Z,16.37
2022-10-19T16:54:51.893Z,10.57
2022-10-19T16:57:18.823Z,15.40
2022-10-19T16:59:45.822Z,17.50
2022-10-19T17:02:12.910Z,9.70
2022-10-19T17:04:39.821Z,20.90
2022-10-19T17:07:06.670Z,15.07
2022-10-19T17:09:42.162Z,23.10
2022-10-19T17:12:10.362Z,34.00
2022-10-19T17:14:39.655Z,17.13
2022-10-19T17:17:06.634Z,14.00
2022-10-19T17:19:33.541Z,13.20
2022-10-19T17:22:02.064Z,11.10
2022-10-19T17:24:28.876Z,9.23
2022-10-19T17:26:56.098Z,13.23
2022-10-19T17:29:23.414Z,7.47
2022-10-19T17:31:50.354Z,18.03
2022-10-19T17:34:17.878Z,9.80
2022-10-19T17:36:45.728Z,8.17
2022-10-19T17:39:17.714Z,11.90
2022-10-19T17:41:45.771Z,13.43
2022-10-19T17:44:12.884Z,8.73
2022-10-19T17:46:39.717Z,8.07
2022-10-19T17:49:06.738Z,11.93
2022-10-19T17:51:35.701Z,7.97
2022-10-19T17:54:05.974Z,8.20
2022-10-19T17:56:32.864Z,10.00
2022-10-19T17:58:59.930Z,12.60
2022-10-19T18:01:27.052Z,14.63
2022-10-19T18:03:54.018Z,18.67
2022-10-19T18:06:26.275Z,15.40
2022-10-19T18:08:55.763Z,14.13
2022-10-19T18:11:28.116Z,10.33
2022-10-19T18:13:58.052Z,12.83
2022-10-19T18:16:37.554Z,9.03
2022-10-19T18:19:05.707Z,7.10
2022-10-19T18:21:35.604Z,10.60
2022-10-19T18:24:03.327Z,7.67
2022-10-19T18:26:32.286Z,10.57
2022-10-19T18:29:00.190Z,4.50
2022-10-19T18:31:31.706Z,10.03
2022-10-19T18:34:01.428Z,6.60
2022-10-19T18:36:28.806Z,6.37
2022-10-19T18:39:01.462Z,5.30
2022-10-19T18:41:28.578Z,7.07
2022-10-19T18:44:02.122Z,6.17
2022-10-19T18:46:29.187Z,7.80
2022-10-19T18:48:56.030Z,9.07
2022-10-19T18:51:23.849Z,8.87
2022-10-19T18:53:50.759Z,11.87
2022-10-19T18:56:19.903Z,7.43
2022-10-19T18:58:47.080Z,10.03
